Time;durP1;ratioP1;P1;durP2;ratioP2;P2;SDS_P1;SDS_P2;PMS_P1;PMS_P2;Temp;Humidity;BMP_temperature;BMP_pressure;BME280_temperature;BME280_humidity;BME280_pressure;Samples;Min_cycle;Max_cycle;Signal;HPM_P1;HPM_P2
2021/04/10 00:03:28;;;;;;;9.00;3.38;;;;;;;10.00;69.90;99876.06;20662035;28;20541;-75
2021/04/10 00:13:29;;;;;;;5.70;2.83;;;;;;;10.26;67.31;99875.34;20671528;28;20055;-77
2021/04/10 00:23:30;;;;;;;10.63;3.17;;;;;;;10.34;67.18;99872.28;20765322;23;20045;-67
2021/04/10 00:33:31;;;;;;;7.30;2.40;;;;;;;10.67;64.51;99875.38;20873335;28;20041;-66
2021/04/10 00:43:33;;;;;;;8.43;2.17;;;;;;;10.97;60.85;99849.06;20911439;28;20558;-67
2021/04/10 00:53:35;;;;;;;6.65;1.90;;;;;;;11.37;58.46;99863.00;20910961;28;20096;-67
2021/04/10 01:03:37;;;;;;;5.93;1.85;;;;;;;11.47;58.29;99856.22;20909184;28;20489;-67
2021/04/10 01:14:02;;;;;;;6.57;1.65;;;;;;;11.70;58.07;99858.13;20908978;28;20677;-66
2021/04/10 01:24:21;;;;;;;6.45;1.70;;;;;;;11.74;58.80;99857.00;20907984;28;20091;-66
2021/04/10 01:34:29;;;;;;;7.05;1.70;;;;;;;11.66;59.13;99854.03;20908207;28;20492;-67
2021/04/10 01:44:31;;;;;;;5.95;2.20;;;;;;;11.72;58.16;99869.34;20916613;28;20079;-66
2021/04/10 01:54:33;;;;;;;6.03;1.50;;;;;;;11.64;58.79;99865.56;20932046;28;20037;-67
2021/04/10 02:04:38;;;;;;;5.03;1.42;;;;;;;11.60;58.46;99872.78;20912310;28;20048;-67
2021/04/10 02:14:40;;;;;;;4.22;1.25;;;;;;;11.65;58.53;99873.31;20905347;28;20053;-67
2021/04/10 02:24:41;;;;;;;6.45;1.40;;;;;;;11.62;58.47;99884.03;20903808;28;20041;-67
2021/04/10 02:34:57;;;;;;;5.75;1.60;;;;;;;11.48;60.44;99892.78;20903358;28;20052;-67
2021/04/10 02:45:04;;;;;;;6.03;1.58;;;;;;;11.41;61.20;99904.63;20903522;28;20041;-67
2021/04/10 02:55:07;;;;;;;4.40;1.50;;;;;;;11.36;61.36;99908.50;20902196;28;20049;-67
2021/04/10 03:05:11;;;;;;;7.38;1.52;;;;;;;11.36;61.48;99898.00;20901208;28;20119;-67
2021/04/10 03:15:16;;;;;;;7.13;1.80;;;;;;;11.37;62.37;99911.03;20900064;28;20049;-67
2021/04/10 03:25:18;;;;;;;4.60;1.73;;;;;;;11.13;63.92;99913.41;20901451;28;20060;-67
2021/04/10 03:35:26;;;;;;;5.43;1.60;;;;;;;11.14;64.21;99912.50;20903694;28;20056;-66
2021/04/10 03:45:27;;;;;;;6.43;1.42;;;;;;;11.31;62.86;99927.13;20916057;28;20451;-68
2021/04/10 03:55:28;;;;;;;8.20;1.50;;;;;;;11.20;61.92;99929.59;20915903;28;20060;-67
2021/04/10 04:05:29;;;;;;;7.72;2.17;;;;;;;11.20;62.11;99939.22;20914998;28;20040;-67
2021/04/10 04:15:30;;;;;;;6.35;2.10;;;;;;;11.13;63.12;99941.41;20914586;28;20056;-67
2021/04/10 04:25:31;;;;;;;3.88;1.63;;;;;;;10.85;65.27;99958.03;20912847;28;20047;-66
2021/04/10 04:35:32;;;;;;;8.68;1.60;;;;;;;10.78;65.55;99964.56;20912781;28;20408;-66
2021/04/10 04:45:33;;;;;;;4.43;1.60;;;;;;;10.71;66.59;99981.59;20910706;28;20136;-67
2021/04/10 04:55:34;;;;;;;7.38;1.73;;;;;;;10.53;68.53;100001.88;20911158;28;20484;-67
2021/04/10 05:05:35;;;;;;;7.15;2.10;;;;;;;10.52;68.71;100013.25;20909663;28;20107;-67
2021/04/10 05:15:36;;;;;;;6.03;1.90;;;;;;;10.48;69.23;100027.47;20910797;28;20049;-67
2021/04/10 05:25:37;;;;;;;6.68;2.13;;;;;;;10.37;69.42;100037.72;20909073;28;20132;-67
2021/04/10 05:35:38;;;;;;;7.97;2.53;;;;;;;10.36;68.89;100064.00;20907231;28;20045;-67
2021/04/10 05:45:39;;;;;;;6.28;1.70;;;;;;;10.43;67.67;100078.38;20907812;28;20131;-67
2021/04/10 05:55:40;;;;;;;5.45;1.60;;;;;;;10.43;66.63;100073.16;20906956;28;20045;-67
2021/04/10 06:05:45;;;;;;;3.47;1.40;;;;;;;10.68;64.07;100057.69;20905402;28;20044;-67
2021/04/10 06:15:46;;;;;;;5.25;1.27;;;;;;;10.55;64.76;100064.59;20905397;28;20049;-67
2021/04/10 06:25:47;;;;;;;4.18;1.40;;;;;;;10.67;64.33;100087.41;20904215;28;20045;-67
2021/04/10 06:35:48;;;;;;;7.15;1.70;;;;;;;10.55;64.88;100099.44;20902859;28;20067;-67
2021/04/10 06:45:50;;;;;;;7.22;1.58;;;;;;;10.50;65.85;100105.88;20903147;28;20416;-67
2021/04/10 06:55:54;;;;;;;5.05;1.48;;;;;;;10.47;66.15;100113.91;20902318;28;20107;-68
2021/04/10 07:05:55;;;;;;;3.63;1.30;;;;;;;10.46;66.26;100117.47;20914262;28;20056;-67
2021/04/10 07:16:00;;;;;;;9.75;1.90;;;;;;;10.62;65.41;100132.16;20948369;28;20550;-67
2021/04/10 07:26:02;;;;;;;5.03;1.80;;;;;;;10.43;66.27;100134.19;20929741;28;20527;-67
2021/04/10 07:36:06;;;;;;;5.13;1.45;;;;;;;10.35;66.83;100133.78;20912696;28;20389;-67
2021/04/10 07:46:23;;;;;;;4.57;1.42;;;;;;;10.44;65.99;100148.09;20990545;28;20047;-67
2021/04/10 07:56:24;;;;;;;5.32;1.90;;;;;;;10.45;66.67;100145.41;20984027;28;20484;-67
2021/04/10 08:06:25;;;;;;;8.98;1.70;;;;;;;10.85;65.28;100137.84;20982063;28;20040;-67
2021/04/10 08:16:26;;;;;;;6.57;1.70;;;;;;;10.96;64.27;100136.25;20933480;28;20568;-67
2021/04/10 08:26:27;;;;;;;4.38;1.80;;;;;;;11.08;63.90;100140.75;20910367;28;20092;-67
2021/04/10 08:36:29;;;;;;;5.60;1.90;;;;;;;11.10;64.23;100162.47;20913674;28;20041;-67
2021/04/10 08:46:31;;;;;;;6.38;1.40;;;;;;;11.12;63.12;100170.25;20913512;28;20064;-67
2021/04/10 08:56:33;;;;;;;4.60;1.80;;;;;;;11.26;64.17;100162.38;20912565;28;20041;-67
2021/04/10 09:06:34;;;;;;;6.93;1.88;;;;;;;11.21;63.74;100171.44;20911500;28;20095;-68
2021/04/10 09:16:40;;;;;;;4.90;1.60;;;;;;;11.67;62.75;100159.84;20961245;28;20407;-68
2021/04/10 09:26:56;;;;;;;3.63;1.50;;;;;;;11.56;62.65;100155.25;20992725;28;20048;-67
2021/04/10 09:36:57;;;;;;;;;;;;;;;11.44;64.46;100170.88;20991860;28;20040;-68
2021/04/10 09:46:58;;;;;;;4.72;1.55;;;;;;;11.43;64.54;100162.16;20991686;28;19924;-67
2021/04/10 09:57:00;;;;;;;5.90;1.98;;;;;;;11.20;64.82;100156.66;20991148;28;20491;-68
2021/04/10 10:07:01;;;;;;;4.28;1.40;;;;;;;11.26;64.87;100164.16;20989551;28;20063;-68
2021/04/10 10:17:08;;;;;;;3.08;1.17;;;;;;;11.44;63.50;100158.63;20936385;28;20053;-68
2021/04/10 10:27:09;;;;;;;3.13;1.30;;;;;;;11.63;62.75;100153.06;20906256;28;20047;-68
2021/04/10 10:37:10;;;;;;;4.22;1.60;;;;;;;11.57;62.41;100145.63;20905455;28;20049;-67
2021/04/10 10:47:11;;;;;;;3.17;1.20;;;;;;;12.08;62.21;100145.91;20903758;28;20443;-67
2021/04/10 10:57:16;;;;;;;4.95;1.27;;;;;;;12.42;60.19;100124.38;20904647;28;20084;-68
2021/04/10 11:07:33;;;;;;;2.13;1.20;;;;;;;13.27;57.79;100115.94;20903747;28;20041;-69
2021/04/10 11:17:34;;;;;;;3.30;1.20;;;;;;;13.55;55.40;100106.97;20960361;28;20048;-69
2021/04/10 11:27:35;;;;;;;3.97;1.00;;;;;;;13.81;55.35;100095.44;20985206;28;20407;-69
2021/04/10 11:37:40;;;;;;;3.55;1.23;;;;;;;13.73;55.87;100081.97;20984613;28;20157;-69
2021/04/10 11:47:41;;;;;;;5.03;2.35;;;;;;;13.76;53.78;100075.66;20987062;28;20096;-68
2021/04/10 11:57:43;;;;;;;5.80;2.83;;;;;;;14.68;51.85;100065.25;20991125;28;20044;-68
2021/04/10 12:08:05;;;;;;;2.78;1.00;;;;;;;14.06;51.98;100058.47;21001620;28;20518;-68
2021/04/10 12:18:09;;;;;;;7.68;1.80;;;;;;;15.28;48.36;100049.94;20937954;28;20052;-69
2021/04/10 12:28:10;;;;;;;2.65;1.38;;;;;;;15.61;46.60;100038.50;20916146;28;20487;-68
2021/04/10 12:38:11;;;;;;;4.03;1.10;;;;;;;15.24;46.90;100029.19;20915344;28;20044;-69
2021/04/10 12:48:12;;;;;;;4.15;1.10;;;;;;;15.61;45.30;100014.78;20914846;28;20084;-69
2021/04/10 12:58:13;;;;;;;2.78;1.30;;;;;;;16.11;43.20;100002.69;20914452;28;20045;-69
2021/04/10 13:08:14;;;;;;;3.20;1.17;;;;;;;15.57;45.19;99996.69;20930567;28;20044;-69
2021/04/10 13:18:15;;;;;;;4.70;1.77;;;;;;;16.10;44.78;99989.63;21002461;28;20048;-69
2021/04/10 13:28:16;;;;;;;6.35;1.40;;;;;;;16.10;43.62;99992.28;20993985;28;20048;-69
2021/04/10 13:38:17;;;;;;;4.68;1.70;;;;;;;16.20;43.20;99972.06;20992178;28;20040;-69
2021/04/10 13:48:18;;;;;;;4.60;1.23;;;;;;;16.34;42.33;99955.03;20991861;28;20044;-70
2021/04/10 13:58:19;;;;;;;5.72;1.20;;;;;;;16.16;41.46;99957.41;20991121;28;20049;-70
2021/04/10 14:08:21;;;;;;;4.00;1.20;;;;;;;15.85;41.31;99953.84;20989318;28;20531;-70
2021/04/10 14:18:21;;;;;;;5.85;0.90;;;;;;;15.45;40.28;99924.63;20925380;28;20456;-70
2021/04/10 14:28:22;;;;;;;5.93;1.00;;;;;;;15.49;40.45;99906.75;20906367;28;20063;-70
2021/04/10 14:38:23;;;;;;;3.72;1.33;;;;;;;15.53;39.20;99880.03;20903723;28;20176;-70
2021/04/10 14:48:24;;;;;;;2.33;0.90;;;;;;;15.58;38.45;99862.03;20904636;28;20132;-69
2021/04/10 14:58:26;;;;;;;4.60;1.05;;;;;;;15.50;39.48;99842.47;20903932;28;20048;-69
2021/04/10 15:08:28;;;;;;;2.65;0.88;;;;;;;15.37;40.43;99838.22;20902734;28;20632;-69
2021/04/10 15:18:31;;;;;;;5.07;1.27;;;;;;;15.05;42.11;99812.84;20967914;28;20051;-69
2021/04/10 15:28:33;;;;;;;2.85;1.00;;;;;;;15.08;41.68;99800.25;20871805;22;20050;-75
2021/04/10 15:38:34;;;;;;;6.25;1.40;;;;;;;15.17;41.55;99801.28;20836395;28;20529;-75
2021/04/10 15:48:35;;;;;;;3.92;1.65;;;;;;;14.72;42.31;99790.09;20838120;28;20452;-75
2021/04/10 15:58:36;;;;;;;3.80;1.10;;;;;;;14.55;41.74;99792.28;20836979;28;20052;-75
2021/04/10 16:08:37;;;;;;;5.10;1.25;;;;;;;14.63;42.11;99772.41;20835263;28;20129;-76
2021/04/10 16:18:38;;;;;;;6.55;1.45;;;;;;;14.55;43.04;99746.66;20836601;28;20050;-76
2021/04/10 16:28:39;;;;;;;4.57;1.40;;;;;;;14.45;43.16;99736.03;20837059;28;20123;-77
2021/04/10 16:38:40;;;;;;;5.10;2.13;;;;;;;14.55;43.09;99723.78;20834436;28;20502;-76
2021/04/10 16:48:41;;;;;;;4.30;1.52;;;;;;;14.43;44.30;99729.22;20832296;28;20053;-77
2021/04/10 16:58:42;;;;;;;7.82;2.90;;;;;;;14.26;44.64;99722.66;20832955;28;20112;-76
2021/04/10 17:08:45;;;;;;;11.73;5.30;;;;;;;13.98;44.40;99723.16;20832095;28;20045;-76
2021/04/10 17:18:46;;;;;;;8.43;2.60;;;;;;;13.91;45.32;99714.09;20897602;28;20056;-76
2021/04/10 17:28:47;;;;;;;8.13;3.20;;;;;;;13.71;45.55;99713.84;20912268;28;20044;-76
2021/04/10 17:38:48;;;;;;;13.77;5.13;;;;;;;13.66;46.21;99704.66;20910982;28;20044;-77
2021/04/10 17:48:51;;;;;;;7.85;3.03;;;;;;;13.50;46.75;99691.88;20910556;28;20095;-76
2021/04/10 17:58:53;;;;;;;18.60;8.80;;;;;;;13.39;49.13;99694.47;20910242;28;20099;-76
2021/04/10 18:08:55;;;;;;;23.10;11.95;;;;;;;13.34;48.40;99698.41;20908330;28;20087;-75
2021/04/10 18:18:56;;;;;;;13.27;7.10;;;;;;;13.18;50.78;99698.75;20840407;28;20046;-76
2021/04/10 18:28:57;;;;;;;16.17;8.68;;;;;;;13.11;51.54;99692.25;20824793;28;20476;-76
2021/04/10 18:38:58;;;;;;;8.95;3.15;;;;;;;12.78;53.10;99703.50;20822259;28;20046;-76
2021/04/10 18:48:59;;;;;;;7.85;2.20;;;;;;;12.47;53.72;99704.94;20824989;28;20045;-75
2021/04/10 18:59:02;;;;;;;11.73;5.78;;;;;;;12.44;53.78;99699.91;20824825;28;20052;-76
2021/04/10 19:09:03;;;;;;;6.25;2.75;;;;;;;12.30;55.43;99708.78;20821750;28;20045;-76
2021/04/10 19:19:09;;;;;;;15.40;8.23;;;;;;;12.29;54.23;99704.47;20821767;28;20088;-77
2021/04/10 19:29:10;;;;;;;9.85;2.58;;;;;;;12.13;55.18;99689.97;20822934;28;20049;-75
2021/04/10 19:39:11;;;;;;;9.20;5.30;;;;;;;12.20;54.68;99691.19;20822006;28;20057;-78
2021/04/10 19:49:12;;;;;;;16.15;6.10;;;;;;;12.12;55.99;99688.28;20825996;28;20046;-76
2021/04/10 19:59:15;;;;;;;5.40;2.28;;;;;;;12.02;56.13;99682.03;20823430;28;20073;-76
2021/04/10 20:09:16;;;;;;;7.05;2.90;;;;;;;11.96;57.04;99681.50;20820731;28;20042;-77
2021/04/10 20:19:18;;;;;;;5.55;2.30;;;;;;;11.75;57.17;99676.94;20827056;28;20112;-76
2021/04/10 20:29:20;;;;;;;6.30;2.20;;;;;;;11.69;57.50;99675.56;20834059;28;20112;-80
2021/04/10 20:39:26;;;;;;;5.78;2.63;;;;;;;11.70;57.28;99671.16;20834835;28;20509;-76
2021/04/10 20:49:28;;;;;;;6.13;2.90;;;;;;;11.72;56.41;99653.53;20834048;28;20089;-78
2021/04/10 20:59:29;;;;;;;7.82;2.65;;;;;;;11.56;59.02;99652.00;20833568;28;20109;-77
2021/04/10 21:09:30;;;;;;;5.20;2.28;;;;;;;11.50;58.87;99646.34;20830819;28;20130;-76
2021/04/10 21:19:31;;;;;;;6.25;2.30;;;;;;;11.47;59.73;99641.31;20814584;28;20045;-76
2021/04/10 21:29:32;;;;;;;6.50;2.10;;;;;;;11.36;61.45;99642.06;20829630;28;20053;-76
2021/04/10 21:39:33;;;;;;;5.57;2.30;;;;;;;11.13;61.45;99643.66;20829379;28;20041;-75
2021/04/10 21:49:34;;;;;;;7.93;3.65;;;;;;;11.10;60.97;99640.41;20829530;28;20049;-76
2021/04/10 21:59:35;;;;;;;6.00;3.00;;;;;;;11.15;63.25;99639.16;20829977;28;20076;-75
2021/04/10 22:09:36;;;;;;;5.72;3.28;;;;;;;11.04;61.81;99646.91;20783626;28;20428;-76
2021/04/10 22:19:37;;;;;;;7.07;3.00;;;;;;;11.07;61.56;99658.97;20827264;28;20049;-75
2021/04/10 22:29:38;;;;;;;8.88;3.92;;;;;;;10.97;62.39;99656.09;20824772;28;20084;-76
2021/04/10 22:39:39;;;;;;;8.32;3.88;;;;;;;10.66;63.84;99653.88;20822810;28;20056;-76
2021/04/10 22:49:40;;;;;;;6.85;3.38;;;;;;;10.38;64.64;99654.00;20832879;23;20138;-69
2021/04/10 22:59:41;;;;;;;9.48;4.40;;;;;;;10.20;65.75;99661.28;20820845;28;20086;-70
2021/04/10 23:09:42;;;;;;;10.15;5.63;;;;;;;10.09;66.72;99659.31;20819729;28;20420;-69
2021/04/10 23:19:43;;;;;;;10.68;5.15;;;;;;;9.92;67.57;99648.25;20820276;28;20401;-69
2021/04/10 23:29:44;;;;;;;10.63;4.68;;;;;;;9.57;68.67;99638.25;20819757;28;20696;-70
2021/04/10 23:39:44;;;;;;;7.95;4.38;;;;;;;9.35;70.12;99637.88;20818626;28;20440;-70
2021/04/10 23:49:45;;;;;;;11.63;5.70;;;;;;;9.15;70.86;99641.72;20818822;28;20077;-70
2021/04/10 23:59:47;;;;;;;14.63;6.00;;;;;;;9.12;71.54;99636.69;20833912;28;20049;-70
